Time;durP1;ratioP1;P1;durP2;ratioP2;P2;SDS_P1;SDS_P2;PMS_P1;PMS_P2;Temp;Humidity;BMP_temperature;BMP_pressure;BME280_temperature;BME280_humidity;BME280_pressure;Samples;Min_cycle;Max_cycle;Signal;HPM_P1;HPM_P2
2021/07/03 00:00:45;;;;;;;;;10.75;10.00;;;;;25.53;45.58;100692.06;5093917;27;46587;-82
2021/07/03 00:03:11;;;;;;;;;13.00;12.00;;;;;25.42;45.96;100680.91;5095039;27;46030;-81
2021/07/03 00:08:57;;;;;;;;;13.50;12.50;;;;;25.41;46.04;100681.09;5095029;27;45532;-81
2021/07/03 00:11:23;;;;;;;;;12.00;11.00;;;;;25.46;46.00;100692.06;5094834;27;46578;-82
2021/07/03 00:13:48;;;;;;;;;13.75;13.00;;;;;25.44;45.83;100688.72;5094805;27;46165;-81
2021/07/03 00:16:14;;;;;;;;;11.75;11.00;;;;;25.41;46.05;100692.66;5076445;27;45759;-80
2021/07/03 00:18:39;;;;;;;;;11.25;11.00;;;;;25.40;46.14;100690.19;5094982;27;45626;-81
2021/07/03 00:21:04;;;;;;;;;11.25;11.00;;;;;25.39;46.11;100683.97;5094690;27;45661;-81
2021/07/03 00:23:31;;;;;;;;;11.50;10.75;;;;;25.38;46.52;100686.84;5094818;27;45648;-80
2021/07/03 00:25:57;;;;;;;;;13.00;11.25;;;;;25.30;46.54;100679.00;5094763;27;45663;-80
2021/07/03 00:28:23;;;;;;;;;11.75;10.50;;;;;25.34;46.26;100691.81;5094719;27;45647;-81
2021/07/03 00:30:48;;;;;;;;;12.50;11.00;;;;;25.20;46.45;100662.50;5076142;27;48625;-80
2021/07/03 00:33:13;;;;;;;;;13.00;12.00;;;;;25.29;46.19;100688.91;5094610;27;45769;-82
2021/07/03 00:39:01;;;;;;;;;10.50;10.25;;;;;25.08;46.75;100656.88;5094438;27;45724;-79
2021/07/03 00:41:26;;;;;;;;;9.00;8.25;;;;;25.21;46.53;100682.91;5094548;27;46507;-80
2021/07/03 00:43:51;;;;;;;;;12.00;11.25;;;;;25.12;46.74;100668.84;5094618;27;45678;-80
2021/07/03 00:46:17;;;;;;;;;11.50;11.50;;;;;25.14;46.70;100682.91;5094975;27;45645;-81
2021/07/03 00:48:43;;;;;;;;;10.50;10.50;;;;;25.16;46.74;100680.00;5095099;27;45804;-81
2021/07/03 00:51:08;;;;;;;;;9.75;9.00;;;;;25.14;46.81;100687.44;5093124;27;48482;-81
2021/07/03 00:53:34;;;;;;;;;12.00;11.75;;;;;25.07;47.01;100668.63;5095377;27;45559;-82
2021/07/03 00:56:00;;;;;;;;;12.50;12.00;;;;;25.11;47.01;100671.72;5098081;27;45557;-80
2021/07/03 00:58:25;;;;;;;;;10.25;10.25;;;;;25.05;46.71;100665.31;5097988;27;45531;-81
2021/07/03 01:00:50;;;;;;;;;11.25;11.25;;;;;25.07;47.17;100671.31;5096953;27;46510;-80
2021/07/03 01:03:16;;;;;;;;;10.50;10.50;;;;;25.05;46.95;100670.69;5098938;27;46138;-80
2021/07/03 01:09:03;;;;;;;;;11.25;10.25;;;;;25.00;47.13;100673.97;5100340;27;45670;-80
2021/07/03 01:11:29;;;;;;;;;12.25;10.25;;;;;24.98;47.12;100668.00;5100725;27;46625;-80
2021/07/03 01:13:55;;;;;;;;;12.75;11.50;;;;;24.89;47.54;100654.94;5104117;27;46532;-80
2021/07/03 01:16:20;;;;;;;;;10.00;9.00;;;;;24.93;47.18;100666.94;5103860;27;45403;-81
2021/07/03 01:18:46;;;;;;;;;12.00;11.50;;;;;24.91;47.03;100659.09;5100883;27;45531;-80
2021/07/03 01:24:34;;;;;;;;;12.25;11.75;;;;;24.83;47.38;100647.72;5097979;27;45961;-79
2021/07/03 01:27:00;;;;;;;;;12.00;11.75;;;;;24.85;47.49;100651.00;5098610;27;45671;-80
2021/07/03 01:29:27;;;;;;;;;10.75;10.50;;;;;24.76;47.47;100636.94;5098773;27;45654;-80
2021/07/03 01:31:55;;;;;;;;;13.00;12.00;;;;;24.82;47.52;100657.59;5097482;27;45535;-80
2021/07/03 01:34:23;;;;;;;;;13.25;11.00;;;;;24.74;47.17;100636.31;5097415;27;47361;-80
2021/07/03 01:36:49;;;;;;;;;11.00;11.00;;;;;24.65;47.70;100633.00;5097629;27;45699;-81
2021/07/03 01:39:14;;;;;;;;;11.25;11.00;;;;;24.75;47.58;100642.50;5097890;27;45744;-81
2021/07/03 01:41:41;;;;;;;;;12.00;11.25;;;;;24.73;47.65;100641.88;5096943;27;46610;-81
2021/07/03 01:44:07;;;;;;;;;11.75;10.00;;;;;24.69;47.60;100641.44;5097361;27;46186;-81
2021/07/03 01:46:32;;;;;;;;;10.75;10.50;;;;;24.69;47.76;100641.44;5097297;27;45520;-80
2021/07/03 01:55:24;;;;;;;;;11.00;10.00;;;;;24.56;47.99;100626.13;5092028;27;45493;-81
2021/07/03 01:57:50;;;;;;;;;12.25;10.75;;;;;24.59;48.17;100635.63;5097101;27;45745;-80
2021/07/03 02:00:16;;;;;;;;;9.50;9.50;;;;;24.59;48.15;100643.69;5097300;27;45465;-81
2021/07/03 02:02:41;;;;;;;;;9.50;9.50;;;;;24.53;47.93;100636.44;5097260;27;46881;-79
2021/07/03 02:05:07;;;;;;;;;11.75;10.75;;;;;24.52;47.98;100640.97;5097019;27;46202;-81
2021/07/03 02:07:32;;;;;;;;;12.00;11.50;;;;;24.40;48.34;100621.09;5096889;27;45446;-81
2021/07/03 02:09:58;;;;;;;;;10.00;10.00;;;;;24.47;48.03;100627.34;5097076;27;45497;-80
2021/07/03 02:12:23;;;;;;;;;6.50;6.50;;;;;24.54;47.75;100643.44;5095321;27;47775;-81
2021/07/03 02:14:49;;;;;;;;;11.00;10.50;;;;;24.49;47.99;100636.00;5078341;27;47198;-81
2021/07/03 02:17:14;;;;;;;;;12.00;10.75;;;;;24.25;47.93;100593.63;5096660;27;46111;-82
2021/07/03 02:19:40;;;;;;;;;10.00;9.50;;;;;24.49;48.08;100637.88;5096860;27;45831;-81
2021/07/03 02:22:05;;;;;;;;;9.25;9.00;;;;;24.48;48.13;100633.53;5096609;27;45623;-79
2021/07/03 02:24:31;;;;;;;;;10.00;9.50;;;;;24.46;48.10;100639.06;5095872;27;46615;-81
2021/07/03 02:26:57;;;;;;;;;11.00;9.75;;;;;24.36;48.47;100622.53;5096786;27;45879;-80
2021/07/03 02:29:22;;;;;;;;;11.25;11.25;;;;;24.43;48.19;100639.47;5097060;27;45588;-80
2021/07/03 02:31:48;;;;;;;;;13.00;11.25;;;;;24.41;48.34;100629.97;5096403;27;46700;-81
2021/07/03 02:34:13;;;;;;;;;13.50;11.50;;;;;24.40;48.84;100637.19;5096436;27;45657;-80
2021/07/03 02:40:01;;;;;;;;;12.00;11.75;;;;;24.33;48.59;100641.69;5096436;27;45656;-80
2021/07/03 02:42:26;;;;;;;;;12.75;11.25;;;;;24.30;48.71;100630.53;5096598;27;46785;-81
2021/07/03 02:44:52;;;;;;;;;11.50;11.50;;;;;24.17;48.64;100618.75;5078210;27;47075;-80
2021/07/03 02:47:17;;;;;;;;;11.50;10.75;;;;;24.16;48.95;100614.38;5096906;27;45646;-81
2021/07/03 02:49:42;;;;;;;;;11.00;10.25;;;;;24.22;49.08;100631.53;5097226;27;45527;-81
2021/07/03 02:52:08;;;;;;;;;11.25;10.75;;;;;24.20;48.75;100637.09;5097017;27;46681;-79
2021/07/03 02:54:33;;;;;;;;;12.00;11.50;;;;;24.18;49.25;100627.59;5098837;27;46063;-80
2021/07/03 02:56:59;;;;;;;;;10.50;10.00;;;;;23.96;48.92;100601.91;5104127;27;45709;-81
2021/07/03 02:59:25;;;;;;;;;12.50;10.25;;;;;24.15;49.13;100628.78;5104306;27;45592;-78
2021/07/03 03:01:51;;;;;;;;;10.75;10.00;;;;;24.05;49.50;100609.56;5103939;27;45670;-81
2021/07/03 03:04:17;;;;;;;;;12.00;11.00;;;;;24.04;49.49;100618.63;5102624;27;46105;-81
2021/07/03 03:10:06;;;;;;;;;12.00;11.50;;;;;24.07;48.98;100623.59;5096236;27;45840;-81
2021/07/03 03:12:32;;;;;;;;;12.50;12.00;;;;;24.06;49.22;100616.59;5096499;27;45610;-79
2021/07/03 03:14:58;;;;;;;;;13.25;13.00;;;;;24.05;49.38;100620.28;5096264;27;46608;-78
2021/07/03 03:17:23;;;;;;;;;13.25;12.00;;;;;23.95;49.77;100600.22;5095955;27;45595;-80
2021/07/03 03:19:49;;;;;;;;;12.25;11.25;;;;;24.01;49.68;100616.34;5095904;27;45984;-81
2021/07/03 03:22:14;;;;;;;;;11.00;10.25;;;;;24.01;50.02;100608.31;5096132;27;45547;-79
2021/07/03 03:24:39;;;;;;;;;12.50;11.50;;;;;24.01;50.09;100616.34;5095761;27;45671;-80
2021/07/03 03:27:05;;;;;;;;;12.00;11.50;;;;;23.90;49.77;100602.69;5095651;27;45674;-80
2021/07/03 03:29:30;;;;;;;;;12.25;10.00;;;;;23.93;49.47;100608.44;5096005;27;45734;-79
2021/07/03 03:31:56;;;;;;;;;12.25;10.00;;;;;23.96;49.92;100617.97;5095765;27;45673;-79
2021/07/03 03:34:21;;;;;;;;;12.25;11.00;;;;;23.81;49.69;100580.56;5095661;27;45934;-80
2021/07/03 03:40:09;;;;;;;;;13.50;12.75;;;;;23.91;50.17;100612.38;5095311;27;45597;-79
2021/07/03 03:42:34;;;;;;;;;11.50;11.50;;;;;23.89;49.73;100615.22;5095118;27;46608;-80
2021/07/03 03:45:00;;;;;;;;;12.75;12.75;;;;;23.86;50.00;100620.94;5095151;27;46187;-79
2021/07/03 03:47:25;;;;;;;;;13.75;13.50;;;;;23.81;50.21;100618.03;5095102;27;45626;-80
2021/07/03 03:49:50;;;;;;;;;14.00;13.50;;;;;23.76;50.32;100617.78;5077157;27;45867;-78
2021/07/03 03:52:17;;;;;;;;;13.00;12.75;;;;;23.74;49.92;100625.22;5095605;27;46465;-80
2021/07/03 03:54:42;;;;;;;;;13.00;11.25;;;;;23.73;50.68;100618.19;5095258;27;46015;-80
2021/07/03 03:59:52;;;;;;;;;12.00;11.75;;;;;23.40;50.45;100583.94;5095201;27;45888;-79
2021/07/03 04:02:18;;;;;;;;;11.00;10.50;;;;;23.46;50.36;100592.25;5095301;27;46235;-80
2021/07/03 04:04:43;;;;;;;;;11.50;11.50;;;;;23.55;50.55;100613.31;5094918;27;47124;-80
2021/07/03 04:07:10;;;;;;;;;14.00;13.75;;;;;23.70;50.69;100639.97;5095476;27;45557;-81
2021/07/03 04:09:35;;;;;;;;;13.00;11.75;;;;;23.68;50.78;100634.84;5095396;27;45549;-80
2021/07/03 04:12:00;;;;;;;;;12.25;11.50;;;;;23.56;50.61;100625.66;5095026;27;45519;-80
2021/07/03 04:14:26;;;;;;;;;12.50;12.00;;;;;23.65;51.01;100639.72;5095016;27;45562;-80
2021/07/03 04:16:51;;;;;;;;;11.25;11.25;;;;;23.55;51.15;100616.00;5076925;27;45527;-81
2021/07/03 04:19:17;;;;;;;;;13.50;12.50;;;;;23.65;50.98;100637.88;5095150;27;45422;-80
2021/07/03 04:21:42;;;;;;;;;14.75;12.00;;;;;23.58;51.41;100628.16;5094779;27;45559;-81
2021/07/03 04:24:08;;;;;;;;;13.75;13.50;;;;;23.55;51.16;100632.03;5094953;27;46166;-80
2021/07/03 04:26:33;;;;;;;;;13.75;13.00;;;;;23.60;51.00;100644.81;5094968;27;45544;-80
2021/07/03 04:28:58;;;;;;;;;12.25;12.25;;;;;23.48;51.38;100619.66;5095138;27;45485;-81
2021/07/03 04:31:24;;;;;;;;;12.50;11.75;;;;;23.56;51.62;100644.41;5094988;27;46605;-80
2021/07/03 04:33:49;;;;;;;;;14.75;13.00;;;;;23.55;51.13;100641.91;5094805;27;45931;-80
2021/07/03 04:36:14;;;;;;;;;12.00;12.00;;;;;23.42;51.46;100615.84;5094824;27;45708;-79
2021/07/03 04:38:40;;;;;;;;;11.25;11.00;;;;;23.54;51.40;100637.56;5095058;27;45588;-80
2021/07/03 04:41:05;;;;;;;;;16.25;13.25;;;;;23.52;52.03;100643.13;5094847;27;45789;-80
2021/07/03 04:43:33;;;;;;;;;15.75;14.75;;;;;23.48;51.45;100643.72;5095324;27;45732;-80
2021/07/03 04:46:10;;;;;;;;;13.25;12.00;;;;;23.51;51.91;100659.38;5095581;27;45580;-80
2021/07/03 04:48:36;;;;;;;;;18.75;17.50;;;;;23.14;52.33;100591.72;5078741;27;45997;-80
2021/07/03 04:51:01;;;;;;;;;16.00;14.50;;;;;23.25;51.77;100609.09;5098669;27;46095;-79
2021/07/03 04:53:27;;;;;;;;;13.25;12.50;;;;;23.50;52.27;100649.69;5101615;27;46102;-80
2021/07/03 04:55:52;;;;;;;;;14.00;12.50;;;;;23.34;52.36;100616.81;5103626;27;45390;-79
2021/07/03 04:58:18;;;;;;;;;13.00;12.75;;;;;23.51;52.53;100652.16;5086215;27;45473;-79
2021/07/03 05:00:43;;;;;;;;;12.25;11.50;;;;;23.48;52.24;100638.38;5104164;27;46282;-81
2021/07/03 05:03:09;;;;;;;;;11.00;11.00;;;;;23.53;52.58;100650.16;5105983;27;46145;-80
2021/07/03 05:05:34;;;;;;;;;14.50;14.00;;;;;23.41;52.19;100628.41;5102917;27;45733;-80
2021/07/03 05:08:00;;;;;;;;;11.75;10.75;;;;;23.55;52.42;100645.41;5098382;27;45580;-80
2021/07/03 05:10:25;;;;;;;;;15.00;13.50;;;;;23.55;52.44;100636.56;5098165;27;45677;-80
2021/07/03 05:12:51;;;;;;;;;14.25;12.75;;;;;23.56;52.46;100636.38;5098274;27;45646;-80
2021/07/03 05:15:17;;;;;;;;;12.75;12.75;;;;;23.57;52.63;100632.69;5098566;27;45587;-81
2021/07/03 05:17:42;;;;;;;;;16.00;14.75;;;;;23.58;52.94;100630.84;5098239;27;45694;-80
2021/07/03 05:20:08;;;;;;;;;14.25;13.25;;;;;23.58;52.72;100630.84;5097844;27;46340;-81
2021/07/03 05:25:57;;;;;;;;;22.00;21.00;;;;;23.58;52.82;100617.47;5097653;27;45700;-80
2021/07/03 05:28:23;;;;;;;;;12.25;11.50;;;;;23.58;53.05;100626.31;5096440;27;45959;-79
2021/07/03 05:30:49;;;;;;;;;12.00;12.00;;;;;23.47;52.86;100610.78;5097539;27;46535;-80
2021/07/03 05:33:15;;;;;;;;;11.75;11.00;;;;;23.62;52.53;100626.75;5097364;27;46002;-79
2021/07/03 05:35:41;;;;;;;;;13.00;10.25;;;;;23.62;52.81;100627.56;5097714;27;45649;-78
2021/07/03 05:38:07;;;;;;;;;14.75;13.00;;;;;23.55;52.57;100621.34;5097804;27;45466;-80
2021/07/03 05:40:32;;;;;;;;;14.50;13.75;;;;;23.64;52.87;100630.06;5097578;27;46348;-81
2021/07/03 05:42:58;;;;;;;;;11.25;10.50;;;;;23.62;52.80;100627.56;5097893;27;45986;-81
2021/07/03 05:45:23;;;;;;;;;13.75;13.50;;;;;23.61;52.87;100625.91;5097796;27;45617;-80
2021/07/03 05:47:52;;;;;;;;;15.25;13.50;;;;;23.64;53.29;100630.06;5097370;27;45589;-80
2021/07/03 05:50:22;;;;;;;;;13.75;12.25;;;;;23.64;52.67;100630.91;5097069;27;46760;-80
2021/07/03 05:56:09;;;;;;;;;13.75;13.00;;;;;23.61;53.39;100635.78;5086323;27;45683;-81
2021/07/03 05:58:35;;;;;;;;;14.00;13.25;;;;;23.62;53.17;100635.59;5096700;27;45559;-81
2021/07/03 06:01:00;;;;;;;;;14.00;12.25;;;;;23.58;52.78;100628.16;5096595;27;46363;-80
2021/07/03 06:03:26;;;;;;;;;9.75;9.50;;;;;23.56;52.92;100619.50;5097617;27;46130;-79
2021/07/03 06:05:51;;;;;;;;;14.50;13.00;;;;;23.62;53.34;100640.13;5096893;27;45473;-81
2021/07/03 06:08:17;;;;;;;;;12.00;12.00;;;;;23.62;53.04;100640.13;5097154;27;45446;-80
2021/07/03 06:10:42;;;;;;;;;12.75;12.25;;;;;23.63;53.00;100639.13;5097093;27;46678;-80
2021/07/03 06:13:08;;;;;;;;;14.25;13.00;;;;;23.54;53.22;100630.38;5097219;27;46088;-81
2021/07/03 06:15:34;;;;;;;;;15.50;14.75;;;;;23.42;52.84;100618.53;5096899;27;45508;-80
2021/07/03 06:17:59;;;;;;;;;15.50;14.25;;;;;23.53;53.50;100643.97;5097030;27;45565;-80
2021/07/03 06:20:25;;;;;;;;;12.25;12.00;;;;;23.53;53.18;100649.31;5096578;27;46543;-79
2021/07/03 06:26:11;;;;;;;;;14.75;14.50;;;;;23.44;53.87;100643.22;5096501;27;45743;-80
2021/07/03 06:28:37;;;;;;;;;11.00;10.75;;;;;23.41;53.98;100643.63;5096567;27;45551;-79
2021/07/03 06:31:02;;;;;;;;;15.00;14.50;;;;;23.33;54.06;100625.84;5095640;27;47430;-80
2021/07/03 06:33:28;;;;;;;;;13.00;11.00;;;;;23.39;53.22;100632.28;5096304;27;45592;-79
2021/07/03 06:35:53;;;;;;;;;13.00;12.00;;;;;23.43;53.61;100642.38;5077358;27;46079;-80
2021/07/03 06:38:19;;;;;;;;;13.00;12.75;;;;;23.44;53.57;100646.72;5096594;27;45637;-79
2021/07/03 06:40:44;;;;;;;;;12.75;12.75;;;;;23.44;53.40;100646.72;5096290;27;45640;-79
2021/07/03 06:43:10;;;;;;;;;11.25;9.25;;;;;23.49;53.46;100646.19;5096185;27;46510;-79
2021/07/03 06:45:35;;;;;;;;;12.25;11.50;;;;;23.46;53.72;100643.91;5094983;27;46041;-80
2021/07/03 06:48:01;;;;;;;;;14.00;12.25;;;;;23.39;53.27;100638.44;5095973;27;45840;-80
2021/07/03 06:50:26;;;;;;;;;14.00;13.25;;;;;23.48;53.65;100646.38;5096571;27;46103;-86
2021/07/03 06:56:13;;;;;;;;;13.50;12.25;;;;;23.64;53.42;100657.66;5106064;27;45585;-83
2021/07/03 06:58:39;;;;;;;;;14.00;14.00;;;;;23.62;53.25;100648.16;5105951;27;45819;-83
2021/07/03 07:01:04;;;;;;;;;14.25;13.00;;;;;23.67;53.32;100656.41;5106614;27;45779;-85
2021/07/03 07:03:30;;;;;;;;;14.25;12.25;;;;;23.73;53.74;100679.75;5106824;27;46042;-81
2021/07/03 07:05:55;;;;;;;;;13.50;13.50;;;;;23.72;53.50;100670.88;5087641;27;45796;-85
2021/07/03 07:11:43;;;;;;;;;11.75;11.50;;;;;23.73;53.01;100664.50;5105761;27;45485;-87
2021/07/03 07:14:09;;;;;;;;;12.50;11.50;;;;;23.75;53.09;100678.50;5094027;27;48477;-83
2021/07/03 07:16:34;;;;;;;;;12.00;10.50;;;;;23.62;53.16;100661.53;5112032;27;45279;-84
2021/07/03 07:19:03;;;;;;;;;15.50;13.50;;;;;23.71;53.30;100685.28;5105310;27;45583;-85
2021/07/03 07:21:28;;;;;;;;;11.00;11.00;;;;;23.58;53.34;100668.28;5101611;27;45716;-85
2021/07/03 07:23:53;;;;;;;;;12.75;12.75;;;;;23.41;53.35;100649.78;5098121;27;46409;-86
2021/07/03 07:26:19;;;;;;;;;14.25;13.25;;;;;23.67;53.56;100693.88;5097570;27;45682;-86
2021/07/03 07:28:46;;;;;;;;;8.50;8.50;;;;;23.42;53.16;100647.94;5098332;27;45588;-84
2021/07/03 07:31:12;;;;;;;;;13.50;13.00;;;;;23.59;53.08;100669.94;5098582;27;45841;-84
2021/07/03 07:33:37;;;;;;;;;11.50;11.00;;;;;23.63;53.01;100684.59;5098301;27;46208;-84
2021/07/03 07:36:03;;;;;;;;;12.50;12.25;;;;;23.72;53.05;100697.63;5097654;27;45604;-83
2021/07/03 07:41:50;;;;;;;;;11.00;10.00;;;;;23.69;53.03;100687.34;5097537;27;46027;-82
2021/07/03 07:44:16;;;;;;;;;10.00;10.00;;;;;23.71;52.88;100701.31;5097068;27;46347;-84
2021/07/03 07:46:41;;;;;;;;;9.75;9.25;;;;;23.70;52.72;100710.38;5096516;27;46129;-82
2021/07/03 07:49:07;;;;;;;;;12.00;11.00;;;;;23.63;53.01;100704.16;5096289;27;45647;-83
2021/07/03 07:51:47;;;;;;;;;10.00;9.00;;;;;23.62;52.67;100710.50;5094803;27;46064;-84
2021/07/03 07:54:13;;;;;;;;;12.25;12.00;;;;;23.47;53.19;100684.84;5095783;27;46035;-85
2021/07/03 07:56:38;;;;;;;;;11.25;11.25;;;;;23.55;53.01;100700.75;5095447;27;46020;-85
2021/07/03 07:59:03;;;;;;;;;11.50;11.00;;;;;23.47;52.84;100680.34;5077954;27;45760;-84
2021/07/03 08:01:29;;;;;;;;;10.75;10.75;;;;;23.53;52.86;100686.75;5096562;27;45559;-85
2021/07/03 08:03:54;;;;;;;;;9.50;8.50;;;;;23.58;53.04;100698.53;5095867;27;46217;-84
2021/07/03 08:06:20;;;;;;;;;14.25;13.00;;;;;23.60;52.80;100701.84;5096947;27;45571;-85
2021/07/03 08:12:08;;;;;;;;;11.00;11.00;;;;;23.62;53.10;100712.34;5096987;27;45630;-84
2021/07/03 08:14:33;;;;;;;;;13.00;12.00;;;;;23.52;53.06;100693.13;5103023;27;46283;-81
2021/07/03 08:16:59;;;;;;;;;11.50;11.00;;;;;23.37;53.40;100679.78;5100475;27;45676;-85
2021/07/03 08:19:24;;;;;;;;;12.00;11.00;;;;;23.54;53.27;100710.63;5100272;27;45668;-85
2021/07/03 08:21:49;;;;;;;;;11.00;11.00;;;;;23.42;53.32;100690.75;5101887;27;45676;-84
2021/07/03 08:24:17;;;;;;;;;10.25;9.75;;;;;23.42;53.51;100696.91;5081386;27;47127;-86
2021/07/03 08:26:42;;;;;;;;;11.75;11.00;;;;;23.47;53.45;100700.91;5098360;27;45539;-86
2021/07/03 08:29:08;;;;;;;;;12.00;11.00;;;;;23.46;53.43;100707.25;5098754;27;45705;-85
2021/07/03 08:31:35;;;;;;;;;13.25;11.00;;;;;23.21;54.10;100662.13;5077797;27;46552;-83
2021/07/03 08:34:00;;;;;;;;;13.25;11.50;;;;;23.40;54.00;100712.31;5094589;27;47438;-87
2021/07/03 08:36:25;;;;;;;;;11.00;10.75;;;;;23.24;53.52;100679.63;5096101;27;45761;-87
2021/07/03 08:42:13;;;;;;;;;12.50;11.00;;;;;23.30;54.31;100714.47;5095582;27;45535;-82
2021/07/03 08:44:45;;;;;;;;;11.25;11.25;;;;;23.28;53.90;100704.97;5095568;27;45519;-86
2021/07/03 08:47:10;;;;;;;;;10.25;8.75;;;;;23.21;53.91;100698.75;5095305;27;45442;-85
2021/07/03 08:49:35;;;;;;;;;9.75;9.75;;;;;23.16;54.53;100699.28;5077811;27;45536;-86
2021/07/03 08:52:02;;;;;;;;;13.25;11.50;;;;;23.09;53.81;100697.56;5096106;27;45478;-86
2021/07/03 08:54:27;;;;;;;;;13.50;12.50;;;;;23.12;54.53;100716.72;5096130;27;46505;-87
2021/07/03 08:56:53;;;;;;;;;11.75;11.50;;;;;23.12;54.88;100723.91;5095220;27;45575;-86
2021/07/03 08:59:20;;;;;;;;;12.25;11.00;;;;;23.06;55.27;100736.19;5095893;27;45422;-85
2021/07/03 09:01:56;;;;;;;;;12.25;10.50;;;;;23.01;54.87;100723.38;5096222;27;45715;-85
2021/07/03 09:04:38;;;;;;;;;12.75;11.75;;;;;22.71;55.44;100667.47;5095969;27;45883;-88
2021/07/03 09:07:15;;;;;;;;;12.00;11.00;;;;;22.97;55.08;100727.44;5097402;27;45501;-83
2021/07/03 09:09:41;;;;;;;;;12.25;10.75;;;;;22.78;54.98;100695.94;5098351;27;45567;-84
2021/07/03 09:12:07;;;;;;;;;9.75;9.25;;;;;22.72;55.82;100687.88;5099020;27;46898;-87
2021/07/03 09:14:36;;;;;;;;;11.75;10.50;;;;;22.93;55.51;100728.84;5096612;27;45644;-85
2021/07/03 09:17:02;;;;;;;;;13.50;10.75;;;;;22.63;55.96;100675.56;5097967;27;45670;-87
2021/07/03 09:19:29;;;;;;;;;10.50;10.50;;;;;22.86;55.72;100724.41;5097683;27;45821;-86
2021/07/03 09:21:56;;;;;;;;;13.00;12.25;;;;;22.62;56.07;100701.44;5097304;27;46237;-84
2021/07/03 09:27:43;;;;;;;;;12.00;10.75;;;;;22.76;55.78;100729.22;5098320;27;45520;-83
2021/07/03 09:30:09;;;;;;;;;14.50;13.25;;;;;22.54;55.79;100698.88;5079684;27;45506;-86
2021/07/03 09:32:35;;;;;;;;;12.00;11.25;;;;;22.63;56.36;100715.63;5097958;27;46863;-87
2021/07/03 09:35:09;;;;;;;;;13.00;12.50;;;;;22.74;55.75;100732.06;5100797;27;45654;-82
2021/07/03 09:37:35;;;;;;;;;14.75;13.25;;;;;22.55;56.77;100705.88;5098274;27;45654;-82
2021/07/03 09:40:08;;;;;;;;;14.50;13.25;;;;;22.76;56.53;100738.06;5097628;27;45611;-80
2021/07/03 09:42:35;;;;;;;;;14.25;14.25;;;;;22.62;55.85;100716.69;5096753;27;45886;-83
2021/07/03 09:45:01;;;;;;;;;13.25;12.75;;;;;22.76;56.09;100740.75;5097581;27;46076;-83
2021/07/03 09:47:27;;;;;;;;;13.00;11.75;;;;;22.78;56.48;100752.03;5097169;27;45562;-82
2021/07/03 09:50:14;;;;;;;;;10.25;9.75;;;;;22.82;56.64;100747.19;5098562;27;45595;-80
2021/07/03 09:52:40;;;;;;;;;11.25;11.25;;;;;22.86;56.63;100749.28;5098809;27;46921;-79
2021/07/03 09:55:08;;;;;;;;;12.00;11.50;;;;;22.89;56.13;100751.59;5081221;27;47283;-82
2021/07/03 09:57:38;;;;;;;;;12.75;12.75;;;;;22.90;56.16;100752.41;5099681;27;45503;-78
2021/07/03 10:00:08;;;;;;;;;21.50;20.25;;;;;22.84;56.53;100739.78;5097748;27;45603;-80
2021/07/03 10:02:34;;;;;;;;;12.00;10.50;;;;;22.98;56.42;100749.66;5097491;27;46502;-83
2021/07/03 10:04:59;;;;;;;;;14.75;12.75;;;;;23.00;56.09;100745.78;5097362;27;45550;-85
2021/07/03 10:13:57;;;;;;;;;13.00;11.75;;;;;23.23;55.70;100734.94;5096982;27;45946;-80
2021/07/03 10:16:24;;;;;;;;;10.50;10.50;;;;;23.29;55.90;100739.56;5096626;27;46539;-81
2021/07/03 10:18:50;;;;;;;;;12.00;11.25;;;;;23.33;55.98;100723.94;5087519;27;45772;-80
2021/07/03 10:21:20;;;;;;;;;13.00;11.75;;;;;23.40;55.85;100722.19;5083529;27;45552;-80
2021/07/03 10:23:46;;;;;;;;;14.50;13.00;;;;;23.46;55.76;100720.63;5101002;27;47508;-82
2021/07/03 10:26:12;;;;;;;;;10.75;9.75;;;;;23.50;55.58;100728.06;5083551;27;47286;-79
2021/07/03 10:28:41;;;;;;;;;10.00;10.00;;;;;23.57;55.15;100728.16;5104103;27;45607;-80
2021/07/03 10:31:12;;;;;;;;;12.50;11.50;;;;;23.60;55.71;100717.88;5104414;27;45477;-80
2021/07/03 10:33:51;;;;;;;;;9.75;9.00;;;;;23.70;54.63;100733.63;5103212;27;46762;-80
2021/07/03 10:36:31;;;;;;;;;6.25;6.00;;;;;23.68;53.89;100730.31;5101047;27;45580;-80
2021/07/03 10:39:00;;;;;;;;;9.00;8.00;;;;;23.66;53.92;100743.06;5101928;27;45611;-83
2021/07/03 10:41:28;;;;;;;;;9.75;8.75;;;;;23.61;54.08;100737.44;5098932;27;45654;-83
2021/07/03 10:44:20;;;;;;;;;9.00;8.50;;;;;23.56;53.06;100738.03;5096830;27;45898;-84
2021/07/03 10:46:45;;;;;;;;;23.25;22.25;;;;;23.40;53.35;100727.53;5092329;27;46989;-84
2021/07/03 10:49:19;;;;;;;;;8.50;8.00;;;;;23.51;53.04;100742.28;5096634;27;45567;-80
2021/07/03 10:51:47;;;;;;;;;9.25;8.75;;;;;23.55;52.81;100739.03;5096974;27;45614;-81
2021/07/03 10:54:19;;;;;;;;;8.00;8.00;;;;;23.57;52.70;100734.34;5097293;27;46412;-82
2021/07/03 10:57:05;;;;;;;;;10.00;8.75;;;;;23.61;52.77;100735.59;5096243;27;47053;-83
2021/07/03 10:59:34;;;;;;;;;6.25;6.25;;;;;23.63;52.37;100722.03;5096775;27;45603;-81
2021/07/03 11:02:29;;;;;;;;;6.00;6.00;;;;;23.67;51.00;100736.69;5096756;27;45537;-84
2021/07/03 11:04:55;;;;;;;;;6.50;5.50;;;;;23.68;51.05;100733.00;5034883;28;45859;-83
2021/07/03 11:07:33;;;;;;;;;6.00;6.00;;;;;23.69;51.45;100726.63;5038340;28;46343;-83
2021/07/03 11:10:25;;;;;;;;;7.00;7.00;;;;;23.76;51.25;100730.19;5038049;28;45453;-85
2021/07/03 11:12:59;;;;;;;;;6.25;5.00;;;;;23.77;50.96;100721.13;5038447;28;45749;-84
2021/07/03 11:15:29;;;;;;;;;5.00;5.00;;;;;23.86;50.71;100730.69;5035784;28;46345;-79
2021/07/03 11:17:56;;;;;;;;;4.25;4.00;;;;;23.91;49.87;100725.63;5035291;28;46457;-84
2021/07/03 11:20:28;;;;;;;;;5.50;5.00;;;;;23.95;49.62;100729.56;5037720;28;45603;-80
2021/07/03 11:22:55;;;;;;;;;6.00;5.00;;;;;23.94;49.49;100717.19;5020090;28;45740;-81
2021/07/03 11:25:25;;;;;;;;;5.25;4.75;;;;;23.97;49.39;100724.81;5041076;28;46529;-83
2021/07/03 11:27:50;;;;;;;;;7.50;6.00;;;;;23.93;48.89;100706.66;5040928;28;46234;-79
2021/07/03 11:30:19;;;;;;;;;6.00;6.00;;;;;24.01;49.18;100723.44;5037705;28;45523;-79
2021/07/03 11:32:54;;;;;;;;;5.75;5.00;;;;;23.97;48.06;100706.06;5035268;28;45939;-82
2021/07/03 11:35:20;;;;;;;;;6.00;6.00;;;;;23.94;48.48;100695.75;5035624;28;45714;-81
2021/07/03 11:37:46;;;;;;;;;7.00;6.00;;;;;24.00;49.14;100703.03;5033355;28;46582;-82
2021/07/03 11:40:16;;;;;;;;;5.00;4.25;;;;;24.08;48.84;100707.41;5033223;28;45622;-83
2021/07/03 11:42:46;;;;;;;;;6.00;6.00;;;;;24.13;48.75;100705.00;5093590;27;45821;-87
2021/07/03 11:45:14;;;;;;;;;4.00;4.00;;;;;24.16;48.48;100702.75;5099460;27;46564;-87
2021/07/03 11:47:44;;;;;;;;;3.00;3.00;;;;;24.22;48.17;100709.19;5101720;27;46080;-87
2021/07/03 11:50:26;;;;;;;;;2.75;2.75;;;;;24.28;47.63;100705.75;5106597;27;45697;-84
2021/07/03 11:52:57;;;;;;;;;3.00;3.00;;;;;24.33;46.57;100705.97;5104671;27;45717;-80
2021/07/03 11:55:26;;;;;;;;;3.00;2.50;;;;;24.34;46.35;100702.28;5103663;27;45700;-85
2021/07/03 11:57:53;;;;;;;;;2.25;2.00;;;;;24.40;45.65;100704.16;5100074;27;45539;-82
2021/07/03 12:00:25;;;;;;;;;10.00;9.75;;;;;24.49;45.74;100704.84;5098203;27;45537;-80
2021/07/03 12:02:51;;;;;;;;;4.50;3.00;;;;;24.60;45.50;100715.00;5079375;27;45781;-86
2021/07/03 12:05:38;;;;;;;;;3.50;3.50;;;;;24.68;44.95;100704.94;5098690;27;46478;-85
2021/07/03 12:08:09;;;;;;;;;3.00;3.00;;;;;24.74;44.46;100703.31;5078707;27;45595;-81
2021/07/03 12:10:51;;;;;;;;;5.00;3.25;;;;;24.83;43.66;100704.00;5096732;27;45449;-84
2021/07/03 12:13:23;;;;;;;;;3.00;2.75;;;;;24.83;43.71;100695.97;5096986;27;45454;-78
2021/07/03 12:15:54;;;;;;;;;4.50;4.00;;;;;24.93;43.88;100701.81;5097690;27;45645;-83
2021/07/03 12:18:34;;;;;;;;;4.75;4.50;;;;;24.89;43.91;100674.53;5078896;27;47871;-79
2021/07/03 12:21:03;;;;;;;;;3.00;3.00;;;;;25.05;43.12;100687.59;5100966;27;45725;-85